PWSweather.com
Personal Weather Stations
Station Observations
KMAMEDFI2
Medfield, MA 02052

Medfield, MA 02052

Lat: 42.1900822, Lon: -71.3296889

Elevation: 138

Station Type: Rainwise WS MK-III

http://www.medfieldweather.com

Latest ConditionsUpdated 8:40:00 AM EST Thursday, Nov 14, 2019
Currently Today's Max Today's Min Today's Average
Temperature 20.5°F-6.4°C 20.5°F-6.4°C 10.8°F-11.8°C 13.2°F-10.4°C
Dew Point 18.6°F-7.4°C 18.6°F-7.4°C 9.0°F-12.8°C 11.5°F-11.4°C
Winds Calm Calm 2.3 mph -3.7 kmh - - 0.1 mph 0.2 kmh
Wind Gusts -- 2.3 mph3.7 kmh - -
Humidity 92% 93% 90% 93%
Pressure 30.36 in1028.1 mb 30.36 in1028.1 mb 30.30 in1026.1 mb -
Hour Temp Dew Point Humidity Winds Wind Gusts Pressure Precip Precip Rate Daily Precip Total
08:40 AM 20.5°F-6.4°C 18.6°F-7.4°C 92% Calm Calm -- 30.36 in1028.1 mb - 0.00 in0.0 mm 0.00 in0.0 mm
08:30 AM 19.3°F-7.1°C 17.6°F-8.0°C 93% Calm Calm -- 30.35 in1027.8 mb - 0.00 in0.0 mm 0.00 in0.0 mm
08:20 AM 17.7°F-7.9°C 16.0°F-8.9°C 93% Calm Calm -- 30.35 in1027.8 mb - 0.00 in0.0 mm 0.00 in0.0 mm
08:10 AM 16.7°F-8.5°C 15.0°F-9.4°C 93% Calm Calm -- 30.34 in1027.4 mb - 0.00 in0.0 mm 0.00 in0.0 mm
08:00 AM 15.7°F-9.1°C 14.0°F-10.0°C 93% Calm Calm -- 30.35 in1027.8 mb - 0.00 in0.0 mm 0.00 in0.0 mm
07:50 AM 15.2°F-9.3°C 13.5°F-10.3°C 93% Calm Calm -- 30.34 in1027.4 mb - 0.00 in0.0 mm 0.00 in0.0 mm
07:40 AM 14.6°F-9.7°C 12.9°F-10.6°C 93% 2.3 mph SW3.7 kmh SW 2.3 mph3.7 kmh 30.34 in1027.4 mb - 0.00 in0.0 mm 0.00 in0.0 mm
07:30 AM 13.9°F-10.1°C 12.3°F-10.9°C 93% Calm Calm -- 30.33 in1027.1 mb - 0.00 in0.0 mm 0.00 in0.0 mm
07:20 AM 13.4°F-10.3°C 11.8°F-11.2°C 93% Calm Calm -- 30.34 in1027.4 mb - 0.00 in0.0 mm 0.00 in0.0 mm
07:10 AM 12.6°F-10.8°C 11.0°F-11.7°C 93% Calm Calm -- 30.33 in1027.1 mb - 0.00 in0.0 mm 0.00 in0.0 mm
07:00 AM 12.3°F-10.9°C 10.7°F-11.8°C 93% Calm Calm -- 30.33 in1027.1 mb - 0.00 in0.0 mm 0.00 in0.0 mm
06:50 AM 11.6°F-11.3°C 10.0°F-12.2°C 93% Calm Calm -- 30.33 in1027.1 mb - 0.00 in0.0 mm 0.00 in0.0 mm
06:40 AM 11.3°F-11.5°C 9.6°F-12.4°C 93% Calm Calm -- 30.32 in1026.8 mb - 0.00 in0.0 mm 0.00 in0.0 mm
06:30 AM 10.8°F-11.8°C 9.0°F-12.8°C 92% Calm Calm -- 30.33 in1027.1 mb - 0.00 in0.0 mm 0.00 in0.0 mm
06:20 AM 11.4°F-11.4°C 9.8°F-12.3°C 93% Calm Calm -- 30.33 in1027.1 mb - 0.00 in0.0 mm 0.00 in0.0 mm
06:10 AM 11.5°F-11.4°C 9.9°F-12.3°C 93% Calm Calm -- 30.33 in1027.1 mb - 0.00 in0.0 mm 0.00 in0.0 mm
06:00 AM 11.3°F-11.5°C 9.7°F-12.4°C 93% Calm Calm -- 30.33 in1027.1 mb - 0.00 in0.0 mm 0.00 in0.0 mm
05:50 AM 11.1°F-11.6°C 9.5°F-12.5°C 93% Calm Calm -- 30.32 in1026.8 mb - 0.00 in0.0 mm 0.00 in0.0 mm
05:40 AM 11.2°F-11.6°C 9.6°F-12.4°C 93% Calm Calm -- 30.32 in1026.8 mb - 0.00 in0.0 mm 0.00 in0.0 mm
05:30 AM 11.7°F-11.3°C 10.1°F-12.2°C 93% Calm Calm -- 30.33 in1027.1 mb - 0.00 in0.0 mm 0.00 in0.0 mm
05:20 AM 11.8°F-11.2°C 10.2°F-12.1°C 93% Calm Calm -- 30.33 in1027.1 mb - 0.00 in0.0 mm 0.00 in0.0 mm
05:10 AM 12.1°F-11.1°C 10.5°F-11.9°C 93% Calm Calm -- 30.33 in1027.1 mb - 0.00 in0.0 mm 0.00 in0.0 mm
05:00 AM 12.0°F-11.1°C 10.4°F-12.0°C 93% Calm Calm -- 30.33 in1027.1 mb - 0.00 in0.0 mm 0.00 in0.0 mm
04:50 AM 12.7°F-10.7°C 11.1°F-11.6°C 93% Calm Calm -- 30.33 in1027.1 mb - 0.00 in0.0 mm 0.00 in0.0 mm
04:40 AM 13.2°F-10.4°C 11.5°F-11.4°C 93% Calm Calm -- 30.33 in1027.1 mb - 0.00 in0.0 mm 0.00 in0.0 mm
04:30 AM 13.3°F-10.4°C 11.7°F-11.3°C 93% Calm Calm -- 30.33 in1027.1 mb - 0.00 in0.0 mm 0.00 in0.0 mm
04:20 AM 13.4°F-10.3°C 11.8°F-11.2°C 93% Calm Calm -- 30.34 in1027.4 mb - 0.00 in0.0 mm 0.00 in0.0 mm
04:10 AM 13.4°F-10.3°C 11.8°F-11.2°C 93% Calm Calm -- 30.32 in1026.8 mb - 0.00 in0.0 mm 0.00 in0.0 mm
04:00 AM 13.6°F-10.2°C 12.0°F-11.1°C 93% Calm Calm -- 30.33 in1027.1 mb - 0.00 in0.0 mm 0.00 in0.0 mm
03:50 AM 13.3°F-10.4°C 11.7°F-11.3°C 93% Calm Calm -- 30.32 in1026.8 mb - 0.00 in0.0 mm 0.00 in0.0 mm
03:40 AM 12.9°F-10.6°C 11.3°F-11.5°C 93% Calm Calm -- 30.32 in1026.8 mb - 0.00 in0.0 mm 0.00 in0.0 mm
03:30 AM 12.7°F-10.7°C 11.1°F-11.6°C 93% Calm Calm -- 30.32 in1026.8 mb - 0.00 in0.0 mm 0.00 in0.0 mm
03:20 AM 12.8°F-10.7°C 11.2°F-11.6°C 93% Calm Calm -- 30.32 in1026.8 mb - 0.00 in0.0 mm 0.00 in0.0 mm
03:10 AM 12.8°F-10.7°C 11.2°F-11.6°C 93% Calm Calm -- 30.32 in1026.8 mb - 0.00 in0.0 mm 0.00 in0.0 mm
03:00 AM 12.6°F-10.8°C 11.0°F-11.7°C 93% Calm Calm -- 30.32 in1026.8 mb - 0.00 in0.0 mm 0.00 in0.0 mm
02:50 AM 12.4°F-10.9°C 10.8°F-11.8°C 93% Calm Calm -- 30.32 in1026.8 mb - 0.00 in0.0 mm 0.00 in0.0 mm
02:40 AM 12.6°F-10.8°C 11.0°F-11.7°C 93% Calm Calm -- 30.32 in1026.8 mb - 0.00 in0.0 mm 0.00 in0.0 mm
02:30 AM 12.6°F-10.8°C 11.0°F-11.7°C 93% Calm Calm -- 30.32 in1026.8 mb - 0.00 in0.0 mm 0.00 in0.0 mm
02:20 AM 12.3°F-10.9°C 10.7°F-11.8°C 93% Calm Calm -- 30.32 in1026.8 mb - 0.00 in0.0 mm 0.00 in0.0 mm
02:00 AM 12.1°F-11.1°C 10.5°F-11.9°C 93% Calm Calm -- 30.32 in1026.8 mb - 0.00 in0.0 mm 0.00 in0.0 mm
01:50 AM 12.4°F-10.9°C 10.8°F-11.8°C 93% Calm Calm -- 30.32 in1026.8 mb - 0.00 in0.0 mm 0.00 in0.0 mm
01:40 AM 12.2°F-11.0°C 10.6°F-11.9°C 93% Calm Calm -- 30.32 in1026.8 mb - 0.00 in0.0 mm 0.00 in0.0 mm
01:30 AM 12.3°F-10.9°C 10.7°F-11.8°C 93% Calm Calm -- 30.32 in1026.8 mb - 0.00 in0.0 mm 0.00 in0.0 mm
01:20 AM 12.5°F-10.8°C 10.9°F-11.7°C 93% Calm Calm -- 30.32 in1026.8 mb - 0.00 in0.0 mm 0.00 in0.0 mm
01:10 AM 12.8°F-10.7°C 11.2°F-11.6°C 93% Calm Calm -- 30.32 in1026.8 mb - 0.00 in0.0 mm 0.00 in0.0 mm
01:00 AM 12.9°F-10.6°C 11.3°F-11.5°C 93% Calm Calm -- 30.32 in1026.8 mb - 0.00 in0.0 mm 0.00 in0.0 mm
12:50 AM 13.1°F-10.5°C 11.2°F-11.6°C 92% Calm Calm -- 30.32 in1026.8 mb - 0.00 in0.0 mm 0.00 in0.0 mm
12:40 AM 13.5°F-10.3°C 11.6°F-11.3°C 92% Calm Calm -- 30.32 in1026.8 mb - 0.00 in0.0 mm 0.00 in0.0 mm
12:30 AM 13.4°F-10.3°C 11.5°F-11.4°C 92% Calm Calm -- 30.31 in1026.4 mb - 0.00 in0.0 mm 0.00 in0.0 mm
12:20 AM 13.2°F-10.4°C 11.6°F-11.3°C 93% 2.3 mph SW3.7 kmh SW 2.3 mph3.7 kmh 30.31 in1026.4 mb - 0.00 in0.0 mm 0.00 in0.0 mm
12:10 AM 13.5°F-10.3°C 11.1°F-11.6°C 90% Calm Calm -- 30.31 in1026.4 mb - 0.00 in0.0 mm 0.00 in0.0 mm
12:00 AM 13.8°F-10.1°C 11.4°F-11.4°C 90% Calm Calm -- 30.30 in1026.1 mb - 0.00 in0.0 mm 0.00 in0.0 mm